createdAt,value
2018-07-28T00:01:07.171Z,6.17
2018-07-28T00:03:41.677Z,7.13
2018-07-28T00:06:16.057Z,6.33
2018-07-28T00:08:50.769Z,6.27
2018-07-28T00:11:25.878Z,6.77
2018-07-28T00:14:00.809Z,6.17
2018-07-28T00:16:35.395Z,6.93
2018-07-28T00:19:11.397Z,6.73
2018-07-28T00:21:46.528Z,6.40
2018-07-28T00:24:21.111Z,6.63
2018-07-28T00:26:56.263Z,7.17
2018-07-28T00:29:30.934Z,6.57
2018-07-28T00:32:05.798Z,6.53
2018-07-28T00:34:40.504Z,6.57
2018-07-28T00:37:15.025Z,6.70
2018-07-28T00:39:49.947Z,7.30
2018-07-28T00:42:25.472Z,7.37
2018-07-28T00:45:00.286Z,6.57
2018-07-28T00:47:35.742Z,7.17
2018-07-28T00:50:11.702Z,7.20
2018-07-28T00:52:47.124Z,6.80
2018-07-28T00:55:22.751Z,6.93
2018-07-28T00:57:57.528Z,6.97
2018-07-28T01:00:32.558Z,7.53
2018-07-28T01:03:07.547Z,7.30
2018-07-28T01:05:42.373Z,6.83
2018-07-28T01:08:18.619Z,7.80
2018-07-28T01:10:53.536Z,7.27
2018-07-28T01:13:28.025Z,7.80
2018-07-28T01:16:02.653Z,7.40
2018-07-28T01:18:37.563Z,7.60
2018-07-28T01:21:13.018Z,7.30
2018-07-28T01:23:47.890Z,8.17
2018-07-28T01:26:22.794Z,7.43
2018-07-28T01:29:01.745Z,7.77
2018-07-28T01:31:37.103Z,7.63
2018-07-28T01:34:11.891Z,7.83
2018-07-28T01:36:46.383Z,7.67
2018-07-28T01:39:21.379Z,7.67
2018-07-28T01:41:56.621Z,8.20
2018-07-28T01:44:31.640Z,8.03
2018-07-28T01:47:06.245Z,7.43
2018-07-28T01:49:40.801Z,7.60
2018-07-28T01:52:15.358Z,7.80
2018-07-28T01:54:50.569Z,8.10
2018-07-28T01:57:25.390Z,7.70
2018-07-28T01:59:59.990Z,8.20
2018-07-28T02:02:34.594Z,7.67
2018-07-28T02:05:11.028Z,8.03
2018-07-28T02:07:46.196Z,8.13
2018-07-28T02:10:21.262Z,8.27
2018-07-28T02:12:55.516Z,8.20
2018-07-28T02:15:30.069Z,8.30
2018-07-28T02:18:05.277Z,8.33
2018-07-28T02:20:40.158Z,7.87
2018-07-28T02:23:15.142Z,7.97
2018-07-28T02:25:50.448Z,7.90
2018-07-28T02:28:25.319Z,8.37
2018-07-28T02:31:00.586Z,8.50
2018-07-28T02:33:37.255Z,8.67
2018-07-28T02:36:12.853Z,8.20
2018-07-28T02:38:48.452Z,8.03
2018-07-28T02:41:24.141Z,8.40
2018-07-28T02:44:00.615Z,8.10
2018-07-28T02:46:35.243Z,8.67
2018-07-28T02:49:12.698Z,8.27
2018-07-28T02:51:50.383Z,8.57
2018-07-28T02:54:28.444Z,8.40
2018-07-28T02:57:03.783Z,8.90
2018-07-28T02:59:42.353Z,8.97
2018-07-28T03:02:17.865Z,9.37
2018-07-28T03:04:54.508Z,9.40
2018-07-28T03:07:31.962Z,8.40
2018-07-28T03:10:06.741Z,8.87
2018-07-28T03:12:42.731Z,7.97
2018-07-28T03:15:32.573Z,8.93
2018-07-28T03:18:09.149Z,8.47
2018-07-28T03:20:43.741Z,8.57
2018-07-28T03:23:18.325Z,8.70
2018-07-28T03:25:52.932Z,9.23
2018-07-28T03:28:27.760Z,8.80
2018-07-28T03:31:03.056Z,8.30
2018-07-28T03:33:37.878Z,9.00
2018-07-28T03:36:12.823Z,8.83
2018-07-28T03:38:47.721Z,8.60
2018-07-28T03:41:22.347Z,9.37
2018-07-28T03:43:56.564Z,9.27
2018-07-28T03:46:31.519Z,9.30
2018-07-28T03:49:06.396Z,9.60
2018-07-28T03:51:41.404Z,8.80
2018-07-28T03:54:15.952Z,9.53
2018-07-28T03:56:50.380Z,9.00
2018-07-28T03:59:25.944Z,8.80
2018-07-28T04:02:00.546Z,9.27
2018-07-28T04:04:35.933Z,9.53
2018-07-28T04:07:10.901Z,10.03
2018-07-28T04:09:46.125Z,9.13
2018-07-28T04:12:20.684Z,9.67
2018-07-28T04:14:55.137Z,9.43
2018-07-28T04:17:29.655Z,9.40
2018-07-28T04:20:04.977Z,9.00
2018-07-28T04:22:40.374Z,9.13
2018-07-28T04:25:15.013Z,9.10
2018-07-28T04:27:50.192Z,9.13
2018-07-28T04:30:24.455Z,9.53
2018-07-28T04:32:59.945Z,9.47
2018-07-28T04:35:34.669Z,10.00
2018-07-28T04:38:10.667Z,9.47
2018-07-28T04:40:45.619Z,9.90
2018-07-28T04:43:21.741Z,10.13
2018-07-28T04:45:56.495Z,9.47
2018-07-28T04:48:31.071Z,8.77
2018-07-28T04:51:05.951Z,9.83
2018-07-28T04:53:40.475Z,9.13
2018-07-28T04:56:15.338Z,10.00
2018-07-28T04:58:50.317Z,9.20
2018-07-28T05:01:24.974Z,9.60
2018-07-28T05:03:59.908Z,9.50
2018-07-28T05:06:34.189Z,9.43
2018-07-28T05:09:12.304Z,9.80
2018-07-28T05:11:47.036Z,9.60
2018-07-28T05:14:22.885Z,10.07
2018-07-28T05:16:57.439Z,9.67
2018-07-28T05:19:31.827Z,9.70
2018-07-28T05:22:07.139Z,10.30
2018-07-28T05:24:41.902Z,9.47
2018-07-28T05:27:16.895Z,9.83
2018-07-28T05:29:51.409Z,10.20
2018-07-28T05:32:26.099Z,9.83
2018-07-28T05:35:00.700Z,10.10
2018-07-28T05:37:35.614Z,10.30
2018-07-28T05:40:10.311Z,10.77
2018-07-28T05:42:44.779Z,9.63
2018-07-28T05:45:19.122Z,10.20
2018-07-28T05:47:53.761Z,10.83
2018-07-28T05:50:28.093Z,10.40
2018-07-28T05:53:02.537Z,10.43
2018-07-28T05:55:37.184Z,10.07
2018-07-28T05:58:11.850Z,9.40
2018-07-28T06:00:46.540Z,10.33
2018-07-28T06:03:21.468Z,10.07
2018-07-28T06:05:55.942Z,9.83
2018-07-28T06:08:30.760Z,10.30
2018-07-28T06:11:05.303Z,10.47
2018-07-28T06:13:40.097Z,10.67
2018-07-28T06:16:14.494Z,10.20
2018-07-28T06:18:49.005Z,10.13
2018-07-28T06:21:23.714Z,10.37
2018-07-28T06:23:58.266Z,9.93
2018-07-28T06:26:32.789Z,10.10
2018-07-28T06:29:07.138Z,10.53
2018-07-28T06:31:41.988Z,10.67
2018-07-28T06:34:16.711Z,10.40
2018-07-28T06:36:51.088Z,10.57
2018-07-28T06:39:25.437Z,10.13
2018-07-28T06:41:59.918Z,9.10
2018-07-28T06:44:34.670Z,9.93
2018-07-28T06:47:09.079Z,8.83
2018-07-28T06:49:43.384Z,9.20
2018-07-28T06:52:18.908Z,8.33
2018-07-28T06:54:53.189Z,9.03
2018-07-28T06:57:27.741Z,8.40
2018-07-28T07:00:06.221Z,8.30
2018-07-28T07:02:41.039Z,8.53
2018-07-28T07:05:16.059Z,8.47
2018-07-28T07:07:50.332Z,8.50
2018-07-28T07:10:24.938Z,9.10
2018-07-28T07:12:59.759Z,9.77
2018-07-28T07:15:34.356Z,8.50
2018-07-28T07:18:09.016Z,9.77
2018-07-28T07:20:44.253Z,9.00
2018-07-28T07:23:18.650Z,9.50
2018-07-28T07:25:52.958Z,9.50
2018-07-28T07:28:27.682Z,9.57
2018-07-28T07:31:02.051Z,9.87
2018-07-28T07:33:36.378Z,9.70
2018-07-28T07:36:10.775Z,9.53
2018-07-28T07:38:45.225Z,9.47
2018-07-28T07:41:19.549Z,9.63
2018-07-28T07:43:54.162Z,9.47
2018-07-28T07:46:28.569Z,10.30
2018-07-28T07:49:03.649Z,10.47
2018-07-28T07:51:39.007Z,10.37
2018-07-28T07:54:13.687Z,10.50
2018-07-28T07:56:48.448Z,10.67
2018-07-28T07:59:23.273Z,9.80
2018-07-28T08:01:57.615Z,10.03
2018-07-28T08:04:32.292Z,9.80
2018-07-28T08:07:06.130Z,10.07
2018-07-28T08:09:40.552Z,10.60
2018-07-28T08:12:15.744Z,10.40
2018-07-28T08:14:50.016Z,10.00
2018-07-28T08:17:25.192Z,9.77
2018-07-28T08:20:00.306Z,9.70
2018-07-28T08:22:34.033Z,9.87
2018-07-28T08:25:09.461Z,9.33
2018-07-28T08:27:43.946Z,10.10
2018-07-28T08:30:18.731Z,9.03
2018-07-28T08:32:54.123Z,9.33
2018-07-28T08:35:28.396Z,9.30
2018-07-28T08:38:02.392Z,8.47
2018-07-28T08:40:37.868Z,8.23
2018-07-28T08:43:13.187Z,8.60
2018-07-28T08:45:48.281Z,8.47
2018-07-28T08:48:24.645Z,7.77
2018-07-28T08:50:59.341Z,8.57
2018-07-28T08:53:34.906Z,7.50
2018-07-28T08:56:09.470Z,8.33
2018-07-28T08:58:45.006Z,8.23
2018-07-28T09:01:20.755Z,7.43
2018-07-28T09:03:57.499Z,7.07
2018-07-28T09:06:32.369Z,6.80
2018-07-28T09:09:09.935Z,6.72
2018-07-28T09:11:44.298Z,7.20
2018-07-28T09:14:19.809Z,6.77
2018-07-28T09:16:55.122Z,6.80
2018-07-28T09:19:30.887Z,6.37
2018-07-28T09:22:05.794Z,6.03
2018-07-28T09:24:59.695Z,6.40
2018-07-28T09:27:52.412Z,6.30
2018-07-28T09:30:28.283Z,6.10
2018-07-28T09:33:03.179Z,5.40
2018-07-28T09:35:37.614Z,6.10
2018-07-28T09:38:22.480Z,5.80
2018-07-28T09:41:13.920Z,5.60
2018-07-28T09:43:54.097Z,5.35
2018-07-28T09:46:35.535Z,5.22
2018-07-28T09:49:32.052Z,5.50
2018-07-28T09:52:25.931Z,5.42
2018-07-28T09:55:04.035Z,5.42
2018-07-28T09:57:38.672Z,5.65
2018-07-28T10:00:18.991Z,5.42
2018-07-28T10:02:54.657Z,5.92
2018-07-28T10:05:29.499Z,5.80
2018-07-28T10:08:07.494Z,5.65
2018-07-28T10:10:42.597Z,5.50
2018-07-28T10:13:17.497Z,4.90
2018-07-28T10:15:51.956Z,4.87
2018-07-28T10:18:32.706Z,4.62
2018-07-28T10:21:52.945Z,4.87
2018-07-28T10:24:30.725Z,5.08
2018-07-28T10:27:05.633Z,4.45
2018-07-28T10:29:40.209Z,4.62
2018-07-28T10:32:14.751Z,4.97
2018-07-28T10:34:49.104Z,5.10
2018-07-28T10:37:23.473Z,5.08
2018-07-28T10:39:58.327Z,5.40
2018-07-28T10:42:32.522Z,4.92
2018-07-28T10:45:07.928Z,4.70
2018-07-28T10:47:42.850Z,4.55
2018-07-28T10:50:17.858Z,4.25
2018-07-28T10:52:52.683Z,4.37
2018-07-28T10:55:26.990Z,3.98
2018-07-28T10:58:01.524Z,3.98
2018-07-28T11:00:36.080Z,3.92
2018-07-28T11:03:10.309Z,3.75
2018-07-28T11:05:44.905Z,3.80
2018-07-28T11:08:19.645Z,4.00
2018-07-28T11:10:53.979Z,4.28
2018-07-28T11:13:28.427Z,4.20
2018-07-28T11:16:03.416Z,4.75
2018-07-28T11:18:38.382Z,4.17
2018-07-28T11:21:12.926Z,3.90
2018-07-28T11:24:00.890Z,4.30
2018-07-28T11:26:40.167Z,3.87
2018-07-28T11:29:14.687Z,4.40
2018-07-28T11:32:13.262Z,4.30
2018-07-28T11:35:08.996Z,4.30
2018-07-28T11:38:22.436Z,4.30
2018-07-28T11:41:17.866Z,3.98
2018-07-28T11:44:13.780Z,3.98
2018-07-28T11:46:52.382Z,4.37
2018-07-28T11:49:29.269Z,4.10
2018-07-28T11:52:03.575Z,4.47
2018-07-28T11:54:38.046Z,4.10
2018-07-28T11:57:14.240Z,4.03
2018-07-28T11:59:49.819Z,4.50
2018-07-28T12:02:24.299Z,4.65
2018-07-28T12:04:58.692Z,4.62
2018-07-28T12:07:33.612Z,4.80
2018-07-28T12:10:10.408Z,4.22
2018-07-28T12:12:44.638Z,4.08
2018-07-28T12:15:19.109Z,4.65
2018-07-28T12:17:56.597Z,4.70
2018-07-28T12:20:31.037Z,4.45
2018-07-28T12:23:05.817Z,3.83
2018-07-28T12:25:40.159Z,4.40
2018-07-28T12:28:14.980Z,4.53
2018-07-28T12:30:49.168Z,4.40
2018-07-28T12:33:24.285Z,4.87
2018-07-28T12:36:00.971Z,4.20
2018-07-28T12:38:39.839Z,4.55
2018-07-28T12:41:14.462Z,4.20
2018-07-28T12:43:49.342Z,4.10
2018-07-28T12:46:25.800Z,4.42
2018-07-28T12:49:01.801Z,4.30
2018-07-28T12:51:36.110Z,4.20
2018-07-28T12:54:11.149Z,4.45
2018-07-28T12:56:46.867Z,4.53
2018-07-28T12:59:21.320Z,4.47
2018-07-28T13:01:57.166Z,4.35
2018-07-28T13:04:31.392Z,4.60
2018-07-28T13:07:07.698Z,4.37
2018-07-28T13:09:42.236Z,4.62
2018-07-28T13:12:16.590Z,4.60
2018-07-28T13:14:55.861Z,4.80
2018-07-28T13:17:32.458Z,4.78
2018-07-28T13:20:07.597Z,4.72
2018-07-28T13:22:50.544Z,5.42
2018-07-28T13:25:28.361Z,5.50
2018-07-28T13:28:03.414Z,5.30
2018-07-28T13:30:38.533Z,5.47
2018-07-28T13:33:13.555Z,5.10
2018-07-28T13:35:49.410Z,5.28
2018-07-28T13:38:24.130Z,5.12
2018-07-28T13:40:58.853Z,6.03
2018-07-28T13:43:33.220Z,8.05
2018-07-28T13:46:13.468Z,7.40
2018-07-28T13:48:48.589Z,6.33
2018-07-28T13:51:24.504Z,6.65
2018-07-28T13:53:59.179Z,6.28
2018-07-28T13:56:34.711Z,6.25
2018-07-28T13:59:09.393Z,6.87
2018-07-28T14:01:43.692Z,6.45
2018-07-28T14:04:17.422Z,7.47
2018-07-28T14:06:50.764Z,8.17
2018-07-28T14:09:25.533Z,8.77
2018-07-28T14:12:02.039Z,9.90
2018-07-28T14:14:36.312Z,11.97
2018-07-28T14:17:11.936Z,13.67
2018-07-28T14:19:46.620Z,14.03
2018-07-28T14:22:21.866Z,14.47
2018-07-28T14:24:56.299Z,12.40
2018-07-28T14:27:30.432Z,12.80
2018-07-28T14:30:04.973Z,13.07
2018-07-28T14:32:38.972Z,13.03
2018-07-28T14:35:13.207Z,13.40
2018-07-28T14:37:47.468Z,14.40
2018-07-28T14:40:21.834Z,15.13
2018-07-28T14:42:56.037Z,14.70
2018-07-28T14:45:30.549Z,14.43
2018-07-28T14:48:04.823Z,13.90
2018-07-28T14:50:38.768Z,14.37
2018-07-28T14:53:12.673Z,13.67
2018-07-28T14:55:47.117Z,14.93
2018-07-28T14:58:20.423Z,17.30
2018-07-28T15:00:54.397Z,18.23
2018-07-28T15:03:28.973Z,15.73
2018-07-28T15:06:03.189Z,15.10
2018-07-28T15:08:37.914Z,19.37
2018-07-28T15:11:12.263Z,18.63
2018-07-28T15:13:48.158Z,20.70
2018-07-28T15:16:22.802Z,21.63
2018-07-28T15:18:56.935Z,21.87
2018-07-28T15:21:38.858Z,21.30
2018-07-28T15:24:21.418Z,20.67
2018-07-28T15:26:55.548Z,19.87
2018-07-28T15:29:29.803Z,21.90
2018-07-28T15:32:04.034Z,18.53
2018-07-28T15:34:38.739Z,20.60
2018-07-28T15:37:12.861Z,18.63
2018-07-28T15:39:47.222Z,18.97
2018-07-28T15:42:22.935Z,19.60
2018-07-28T15:44:56.860Z,17.17
2018-07-28T15:47:31.578Z,17.40
2018-07-28T15:50:06.024Z,18.70
2018-07-28T15:52:41.472Z,17.97
2018-07-28T15:55:16.184Z,19.33
2018-07-28T15:57:51.170Z,18.40
2018-07-28T16:00:25.132Z,18.80
2018-07-28T16:03:09.789Z,16.67
2018-07-28T16:05:44.805Z,16.13
2018-07-28T16:08:20.116Z,16.97
2018-07-28T16:10:56.304Z,18.00
2018-07-28T16:13:30.882Z,17.33
2018-07-28T16:16:05.065Z,17.17
2018-07-28T16:18:38.350Z,16.70
2018-07-28T16:21:12.289Z,16.70
2018-07-28T16:23:46.329Z,17.17
2018-07-28T16:26:20.847Z,17.07
2018-07-28T16:28:54.909Z,18.67
2018-07-28T16:31:28.954Z,20.13
2018-07-28T16:34:02.921Z,18.53
2018-07-28T16:36:36.984Z,19.33
2018-07-28T16:39:12.757Z,18.53
2018-07-28T16:41:53.262Z,17.47
2018-07-28T16:44:32.408Z,15.50
2018-07-28T16:47:47.977Z,15.40
2018-07-28T16:50:25.012Z,15.30
2018-07-28T16:52:58.933Z,15.53
2018-07-28T16:55:33.270Z,15.23
2018-07-28T16:58:07.596Z,14.03
2018-07-28T17:00:41.838Z,13.13
2018-07-28T17:03:16.124Z,13.47
2018-07-28T17:05:50.936Z,12.87
2018-07-28T17:08:24.879Z,12.47
2018-07-28T17:10:59.490Z,12.80
2018-07-28T17:13:34.400Z,12.60
2018-07-28T17:16:08.438Z,11.80
2018-07-28T17:18:42.762Z,12.07
2018-07-28T17:21:17.188Z,12.30
2018-07-28T17:23:53.715Z,12.27
2018-07-28T17:26:28.256Z,10.40
2018-07-28T17:29:05.597Z,10.63
2018-07-28T17:31:47.954Z,7.87
2018-07-28T17:34:22.054Z,9.00
2018-07-28T17:36:56.061Z,11.17
2018-07-28T17:39:30.359Z,9.33
2018-07-28T17:42:04.866Z,10.93
2018-07-28T17:44:39.096Z,11.40
2018-07-28T17:47:13.601Z,12.70
2018-07-28T17:49:47.524Z,12.80
2018-07-28T17:52:21.625Z,12.53
2018-07-28T17:54:56.080Z,12.77
2018-07-28T17:57:30.741Z,14.27
2018-07-28T18:00:05.243Z,13.97
2018-07-28T18:02:40.070Z,14.80
2018-07-28T18:05:14.502Z,15.30
2018-07-28T18:07:48.867Z,13.97
2018-07-28T18:10:22.816Z,15.07
2018-07-28T18:12:56.796Z,14.93
2018-07-28T18:15:30.725Z,14.03
2018-07-28T18:18:05.142Z,14.47
2018-07-28T18:20:39.490Z,13.30
2018-07-28T18:23:13.075Z,15.27
2018-07-28T18:25:47.413Z,15.50
2018-07-28T18:28:21.745Z,15.10
2018-07-28T18:30:55.692Z,15.10
2018-07-28T18:33:29.679Z,15.90
2018-07-28T18:36:04.124Z,13.80
2018-07-28T18:38:38.182Z,13.20
2018-07-28T18:41:13.442Z,12.47
2018-07-28T18:43:47.497Z,12.20
2018-07-28T18:46:21.496Z,13.27
2018-07-28T18:48:55.738Z,14.50
2018-07-28T18:51:29.777Z,14.50
2018-07-28T18:54:03.758Z,14.87
2018-07-28T18:56:37.986Z,13.67
2018-07-28T18:59:12.820Z,12.47
2018-07-28T19:01:46.861Z,13.43
2018-07-28T19:04:20.903Z,14.37
2018-07-28T19:06:54.840Z,13.53
2018-07-28T19:09:34.001Z,13.27
2018-07-28T19:12:08.353Z,11.80
2018-07-28T19:14:42.656Z,12.67
2018-07-28T19:17:16.657Z,13.77
2018-07-28T19:19:50.677Z,13.20
2018-07-28T19:22:29.676Z,12.40
2018-07-28T19:25:03.876Z,13.33
2018-07-28T19:27:38.160Z,14.30
2018-07-28T19:30:12.185Z,13.27
2018-07-28T19:32:47.242Z,13.10
2018-07-28T19:35:21.156Z,13.30
2018-07-28T19:37:57.210Z,13.30
2018-07-28T19:40:31.445Z,14.30
2018-07-28T19:43:07.172Z,14.37
2018-07-28T19:45:41.273Z,14.50
2018-07-28T19:48:16.264Z,15.50
2018-07-28T19:50:53.134Z,14.60
2018-07-28T19:53:27.300Z,14.90
2018-07-28T19:56:02.237Z,15.33
2018-07-28T19:58:36.331Z,16.07
2018-07-28T20:01:10.375Z,16.13
2018-07-28T20:03:44.368Z,16.17
2018-07-28T20:06:18.334Z,16.03
2018-07-28T20:08:54.210Z,16.90
2018-07-28T20:11:28.219Z,17.33
2018-07-28T20:14:02.323Z,16.93
2018-07-28T20:16:36.879Z,18.53
2018-07-28T20:19:11.583Z,17.87
2018-07-28T20:21:46.055Z,20.43
2018-07-28T20:24:20.111Z,19.77
2018-07-28T20:26:54.524Z,18.23
2018-07-28T20:29:28.550Z,19.87
2018-07-28T20:32:02.565Z,20.07
2018-07-28T20:34:36.693Z,19.07
2018-07-28T20:37:10.735Z,18.30
2018-07-28T20:39:44.722Z,17.83
2018-07-28T20:42:18.723Z,11.90
2018-07-28T20:44:54.372Z,9.40
2018-07-28T20:47:28.915Z,7.53
2018-07-28T20:50:03.445Z,6.40
2018-07-28T20:52:38.878Z,6.03
2018-07-28T20:55:13.212Z,5.97
2018-07-28T20:57:47.243Z,4.90
2018-07-28T21:00:26.450Z,5.67
2018-07-28T21:03:01.817Z,5.87
2018-07-28T21:05:35.977Z,5.97
2018-07-28T21:08:10.565Z,6.77
2018-07-28T21:10:45.084Z,6.10
2018-07-28T21:13:19.572Z,6.30
2018-07-28T21:15:54.985Z,6.93
2018-07-28T21:18:32.733Z,7.70
2018-07-28T21:21:12.363Z,7.57
2018-07-28T21:24:03.875Z,7.77
2018-07-28T21:26:39.468Z,8.70
2018-07-28T21:29:13.498Z,8.00
2018-07-28T21:31:48.516Z,8.73
2018-07-28T21:34:22.553Z,9.70
2018-07-28T21:36:56.911Z,12.80
2018-07-28T21:39:31.005Z,14.40
2018-07-28T21:42:05.280Z,13.33
2018-07-28T21:44:39.405Z,14.30
2018-07-28T21:47:14.820Z,15.40
2018-07-28T21:49:49.765Z,14.60
2018-07-28T21:52:24.018Z,15.10
2018-07-28T21:54:58.005Z,14.67
2018-07-28T21:57:32.005Z,12.93
2018-07-28T22:00:07.732Z,12.73
2018-07-28T22:02:42.366Z,12.00
2018-07-28T22:05:16.571Z,11.33
2018-07-28T22:07:52.545Z,11.07
2018-07-28T22:10:31.869Z,10.73
2018-07-28T22:13:09.229Z,10.90
2018-07-28T22:16:28.116Z,10.20
2018-07-28T22:19:54.474Z,10.70
2018-07-28T22:23:24.576Z,9.80
2018-07-28T22:26:46.171Z,10.10
2018-07-28T22:29:55.703Z,8.90
2018-07-28T22:32:31.332Z,11.07
2018-07-28T22:35:05.762Z,9.27
2018-07-28T22:37:39.873Z,9.80
2018-07-28T22:40:14.494Z,8.67
2018-07-28T22:42:52.214Z,8.27
2018-07-28T22:45:26.901Z,9.07
2018-07-28T22:48:02.393Z,9.17
2018-07-28T22:50:36.988Z,8.40
2018-07-28T22:53:13.518Z,8.53
2018-07-28T22:55:47.970Z,8.10
2018-07-28T22:58:26.357Z,8.63
2018-07-28T23:01:04.521Z,8.70
2018-07-28T23:03:45.353Z,9.27
2018-07-28T23:06:24.665Z,9.20
2018-07-28T23:09:04.983Z,8.70
2018-07-28T23:11:45.741Z,8.23
2018-07-28T23:14:25.330Z,8.40
2018-07-28T23:17:03.759Z,8.40
2018-07-28T23:19:42.103Z,8.17
2018-07-28T23:22:26.028Z,7.80
2018-07-28T23:25:33.509Z,7.67
2018-07-28T23:28:52.277Z,7.63
2018-07-28T23:35:39.448Z,7.63
2018-07-28T23:38:22.038Z,8.10
2018-07-28T23:41:23.185Z,7.27
2018-07-28T23:43:57.395Z,7.20
2018-07-28T23:46:31.917Z,7.60
2018-07-28T23:49:05.860Z,6.60
2018-07-28T23:51:40.239Z,7.43
2018-07-28T23:54:14.149Z,7.70
2018-07-28T23:56:48.417Z,8.23
2018-07-28T23:59:21.802Z,7.80
